createdAt,value
2022-11-02T00:01:03.709Z,15.81
2022-11-02T00:03:33.755Z,15.99
2022-11-02T00:06:00.452Z,15.92
2022-11-02T00:08:27.172Z,15.83
2022-11-02T00:10:54.173Z,15.96
2022-11-02T00:13:20.904Z,15.88
2022-11-02T00:15:47.871Z,15.87
2022-11-02T00:24:44.494Z,15.90
2022-11-02T00:27:11.625Z,15.76
2022-11-02T00:29:38.328Z,15.72
2022-11-02T00:32:08.607Z,15.83
2022-11-02T00:34:35.512Z,15.74
2022-11-02T00:37:04.432Z,15.76
2022-11-02T00:39:31.360Z,15.76
2022-11-02T00:41:58.326Z,15.71
2022-11-02T00:44:26.142Z,15.60
2022-11-02T00:46:53.033Z,15.54
2022-11-02T00:49:20.010Z,15.62
2022-11-02T00:51:47.432Z,15.62
2022-11-02T00:54:14.543Z,15.70
2022-11-02T00:56:41.899Z,15.56
2022-11-02T00:59:08.841Z,15.51
2022-11-02T01:01:39.136Z,15.50
2022-11-02T01:04:07.131Z,15.52
2022-11-02T01:06:33.813Z,15.52
2022-11-02T01:09:00.516Z,15.48
2022-11-02T01:11:27.654Z,15.44
2022-11-02T01:13:54.533Z,15.32
2022-11-02T01:16:21.457Z,15.41
2022-11-02T01:18:55.478Z,15.34
2022-11-02T01:21:22.496Z,15.39
2022-11-02T01:23:49.467Z,15.26
2022-11-02T01:26:16.102Z,15.32
2022-11-02T01:28:42.845Z,15.32
2022-11-02T01:31:10.261Z,15.33
2022-11-02T01:33:37.184Z,15.18
2022-11-02T01:36:04.742Z,15.25
2022-11-02T01:38:32.304Z,15.17
2022-11-02T01:40:59.390Z,15.18
2022-11-02T01:43:29.048Z,15.28
2022-11-02T01:45:56.399Z,15.28
2022-11-02T01:48:25.979Z,15.29
2022-11-02T01:50:53.764Z,15.18
2022-11-02T01:53:20.733Z,15.24
2022-11-02T01:55:47.547Z,15.26
2022-11-02T01:58:14.233Z,15.28
2022-11-02T02:00:41.282Z,15.29
2022-11-02T02:03:09.633Z,15.35
2022-11-02T02:05:39.396Z,15.28
2022-11-02T02:08:08.333Z,15.24
2022-11-02T02:10:36.100Z,15.02
2022-11-02T02:13:04.733Z,15.16
2022-11-02T02:15:36.091Z,15.16
2022-11-02T02:18:10.260Z,15.17
2022-11-02T02:20:46.233Z,15.18
2022-11-02T02:23:32.152Z,15.19
2022-11-02T02:26:01.967Z,15.19
2022-11-02T02:28:47.382Z,15.10
2022-11-02T02:31:14.577Z,14.87
2022-11-02T02:33:41.517Z,14.94
2022-11-02T02:36:27.333Z,15.01
2022-11-02T02:39:19.222Z,15.12
2022-11-02T02:41:56.572Z,14.97
2022-11-02T02:44:23.726Z,15.28
2022-11-02T02:46:55.905Z,15.20
2022-11-02T02:49:27.718Z,14.98
2022-11-02T02:51:56.181Z,15.08
2022-11-02T02:54:25.976Z,14.85
2022-11-02T02:56:54.191Z,14.95
2022-11-02T02:59:21.245Z,14.86
2022-11-02T03:01:48.767Z,15.11
2022-11-02T03:04:19.453Z,15.00
2022-11-02T03:06:52.488Z,14.89
2022-11-02T03:09:22.033Z,15.08
2022-11-02T03:12:01.077Z,14.99
2022-11-02T03:14:36.613Z,15.10
2022-11-02T03:17:06.351Z,14.95
2022-11-02T03:19:52.349Z,14.99
2022-11-02T03:22:45.102Z,15.15
2022-11-02T03:25:17.015Z,15.00
2022-11-02T03:27:47.391Z,15.16
2022-11-02T03:30:15.331Z,15.26
2022-11-02T03:32:53.716Z,15.07
2022-11-02T03:35:22.610Z,15.07
2022-11-02T03:37:51.623Z,15.06
2022-11-02T03:40:26.217Z,15.26
2022-11-02T03:42:53.308Z,15.26
2022-11-02T03:45:21.591Z,15.09
2022-11-02T03:47:57.598Z,15.22
2022-11-02T03:50:24.601Z,15.24
2022-11-02T03:52:54.581Z,15.22
2022-11-02T03:55:26.418Z,15.23
2022-11-02T03:57:53.490Z,15.24
2022-11-02T04:00:21.496Z,15.06
2022-11-02T04:02:52.476Z,15.31
2022-11-02T04:05:20.950Z,15.26
2022-11-02T04:08:07.916Z,15.22
2022-11-02T04:10:35.162Z,15.04
2022-11-02T04:13:20.765Z,15.31
2022-11-02T04:15:47.807Z,15.35
2022-11-02T04:18:33.203Z,15.39
2022-11-02T04:21:00.301Z,15.32
2022-11-02T04:23:46.107Z,15.28
2022-11-02T04:26:13.133Z,15.42
2022-11-02T04:28:40.260Z,15.44
2022-11-02T04:31:07.709Z,15.59
2022-11-02T04:33:35.441Z,15.57
2022-11-02T04:36:05.896Z,15.61
2022-11-02T04:38:42.517Z,15.68
2022-11-02T04:41:38.186Z,15.72
2022-11-02T04:44:06.658Z,15.78
2022-11-02T04:46:35.322Z,15.84
2022-11-02T04:49:02.777Z,15.66
2022-11-02T04:51:30.741Z,15.95
2022-11-02T04:53:58.320Z,15.79
2022-11-02T04:56:25.665Z,15.63
2022-11-02T04:58:53.441Z,15.69
2022-11-02T05:01:21.091Z,15.86
2022-11-02T05:03:48.903Z,15.83
2022-11-02T05:06:16.302Z,15.84
2022-11-02T05:08:43.386Z,15.73
2022-11-02T05:11:10.670Z,15.46
2022-11-02T05:13:38.168Z,15.55
2022-11-02T05:16:05.526Z,14.94
2022-11-02T05:18:32.458Z,15.51
2022-11-02T05:20:59.823Z,15.59
2022-11-02T05:23:27.527Z,15.29
2022-11-02T05:25:55.275Z,15.46
2022-11-02T05:28:22.991Z,14.64
2022-11-02T05:30:50.094Z,14.50
2022-11-02T05:33:17.490Z,15.09
2022-11-02T05:35:44.515Z,14.83
2022-11-02T05:38:13.762Z,14.74
2022-11-02T05:40:40.941Z,14.17
2022-11-02T05:43:09.490Z,14.40
2022-11-02T05:45:37.026Z,14.63
2022-11-02T05:48:04.312Z,14.70
2022-11-02T05:50:31.094Z,14.47
2022-11-02T05:52:59.136Z,15.14
2022-11-02T05:55:25.768Z,15.43
2022-11-02T05:57:53.182Z,15.25
2022-11-02T06:00:20.639Z,15.35
2022-11-02T06:02:48.050Z,15.40
2022-11-02T06:05:15.066Z,15.72
2022-11-02T06:07:41.839Z,15.83
2022-11-02T06:10:08.911Z,15.90
2022-11-02T06:12:35.618Z,15.89
2022-11-02T06:15:02.244Z,15.90
2022-11-02T06:17:29.199Z,15.86
2022-11-02T06:19:55.833Z,15.92
2022-11-02T06:22:22.479Z,15.91
2022-11-02T06:24:49.417Z,15.65
2022-11-02T06:27:16.084Z,15.78
2022-11-02T06:29:43.020Z,15.59
2022-11-02T06:32:09.932Z,15.76
2022-11-02T06:34:36.588Z,15.94
2022-11-02T06:37:03.258Z,15.91
2022-11-02T06:39:30.258Z,15.98
2022-11-02T06:41:56.970Z,16.15
2022-11-02T06:44:25.324Z,16.06
2022-11-02T06:46:52.350Z,16.01
2022-11-02T06:49:19.066Z,15.93
2022-11-02T06:51:45.805Z,16.00
2022-11-02T06:54:12.792Z,16.10
2022-11-02T06:56:40.034Z,16.09
2022-11-02T06:59:07.078Z,16.04
2022-11-02T07:01:35.303Z,16.05
2022-11-02T07:04:03.347Z,16.18
2022-11-02T07:06:30.162Z,16.19
2022-11-02T07:08:57.288Z,16.20
2022-11-02T07:11:24.131Z,16.35
2022-11-02T07:13:50.869Z,16.34
2022-11-02T07:16:17.818Z,16.22
2022-11-02T07:18:44.501Z,16.23
2022-11-02T07:21:12.074Z,16.19
2022-11-02T07:23:39.455Z,16.42
2022-11-02T07:26:06.162Z,16.14
2022-11-02T07:28:32.896Z,16.24
2022-11-02T07:31:00.397Z,16.35
2022-11-02T07:33:27.246Z,16.53
2022-11-02T07:35:53.967Z,16.54
2022-11-02T07:38:20.900Z,16.66
2022-11-02T07:40:48.823Z,16.86
2022-11-02T07:43:15.469Z,16.66
2022-11-02T07:45:42.622Z,16.97
2022-11-02T07:48:09.280Z,17.17
2022-11-02T07:50:35.998Z,17.45
2022-11-02T07:53:03.278Z,17.31
2022-11-02T07:55:30.685Z,17.54
2022-11-02T07:57:58.649Z,17.49
2022-11-02T08:00:26.886Z,17.26
2022-11-02T08:02:54.808Z,17.40
2022-11-02T08:05:21.474Z,17.38
2022-11-02T08:07:48.651Z,17.51
2022-11-02T08:10:15.655Z,17.35
2022-11-02T08:12:42.328Z,17.29
2022-11-02T08:15:09.262Z,17.47
2022-11-02T08:17:36.139Z,17.45
2022-11-02T08:20:02.939Z,16.82
2022-11-02T08:22:29.578Z,16.94
2022-11-02T08:24:56.498Z,17.01
2022-11-02T08:27:23.181Z,16.68
2022-11-02T08:29:50.292Z,16.90
2022-11-02T08:32:17.337Z,16.86
2022-11-02T08:34:44.039Z,16.57
2022-11-02T08:37:10.754Z,16.85
2022-11-02T08:39:37.784Z,16.95
2022-11-02T08:42:04.580Z,16.98
2022-11-02T08:44:31.278Z,16.73
2022-11-02T08:46:58.402Z,17.19
2022-11-02T08:49:25.124Z,16.88
2022-11-02T08:51:51.824Z,17.25
2022-11-02T08:54:18.832Z,17.10
2022-11-02T08:56:45.505Z,17.12
2022-11-02T08:59:12.221Z,16.77
2022-11-02T09:01:39.359Z,16.93
2022-11-02T09:04:06.110Z,17.18
2022-11-02T09:06:32.758Z,17.69
2022-11-02T09:08:59.715Z,17.83
2022-11-02T09:11:26.421Z,17.89
2022-11-02T09:13:56.895Z,17.91
2022-11-02T09:16:25.082Z,17.69
2022-11-02T09:18:52.098Z,18.07
2022-11-02T09:21:18.807Z,17.85
2022-11-02T09:23:48.477Z,18.00
2022-11-02T09:26:15.430Z,18.20
2022-11-02T09:28:42.091Z,18.12
2022-11-02T09:31:11.567Z,18.39
2022-11-02T09:33:38.789Z,17.98
2022-11-02T09:36:06.135Z,18.13
2022-11-02T09:38:33.747Z,18.18
2022-11-02T09:41:03.386Z,18.25
2022-11-02T09:44:02.186Z,18.19
2022-11-02T09:46:30.648Z,18.29
2022-11-02T09:48:58.965Z,18.49
2022-11-02T09:51:26.832Z,18.63
2022-11-02T09:54:17.411Z,18.51
2022-11-02T09:56:44.915Z,18.50
2022-11-02T09:59:13.017Z,18.32
2022-11-02T10:01:57.834Z,18.32
2022-11-02T10:04:30.794Z,18.71
2022-11-02T10:07:17.748Z,18.66
2022-11-02T10:09:55.019Z,18.64
2022-11-02T10:12:24.270Z,18.50
2022-11-02T10:14:54.164Z,18.69
2022-11-02T10:17:22.014Z,19.08
2022-11-02T10:19:51.048Z,19.29
2022-11-02T10:22:17.989Z,19.36
2022-11-02T10:24:45.377Z,19.32
2022-11-02T10:27:29.148Z,19.22
2022-11-02T10:30:03.928Z,19.38
2022-11-02T10:32:31.122Z,19.37
2022-11-02T10:35:04.289Z,19.62
2022-11-02T10:37:52.560Z,19.60
2022-11-02T10:40:41.246Z,19.85
2022-11-02T10:43:15.091Z,19.84
2022-11-02T10:45:53.125Z,19.77
2022-11-02T10:48:27.377Z,19.81
2022-11-02T10:51:08.120Z,19.96
2022-11-02T10:53:48.665Z,20.26
2022-11-02T10:56:19.867Z,20.35
2022-11-02T10:58:49.394Z,20.25
2022-11-02T11:01:16.425Z,20.46
2022-11-02T11:03:52.988Z,20.27
2022-11-02T11:06:19.976Z,20.32
2022-11-02T11:08:49.785Z,20.36
2022-11-02T11:11:21.068Z,20.36
2022-11-02T11:16:45.168Z,20.29
2022-11-02T11:22:25.632Z,20.24
2022-11-02T11:24:52.621Z,20.39
2022-11-02T11:27:20.108Z,20.49
2022-11-02T11:29:54.728Z,20.58
2022-11-02T11:32:24.611Z,20.64
2022-11-02T11:34:56.815Z,20.76
2022-11-02T11:37:24.305Z,20.67
2022-11-02T11:39:54.799Z,20.64
2022-11-02T11:42:22.848Z,20.81
2022-11-02T11:45:00.707Z,20.54
2022-11-02T11:47:28.445Z,20.61
2022-11-02T11:50:10.529Z,20.74
2022-11-02T11:52:42.459Z,20.77
2022-11-02T11:55:23.378Z,20.71
2022-11-02T11:58:06.709Z,20.76
2022-11-02T12:00:34.581Z,20.85
2022-11-02T12:03:02.563Z,20.74
2022-11-02T12:05:29.542Z,20.59
2022-11-02T12:08:14.893Z,20.80
2022-11-02T12:10:48.819Z,20.98
2022-11-02T12:13:21.360Z,20.92
2022-11-02T12:16:00.506Z,21.12
2022-11-02T12:18:27.128Z,21.20
2022-11-02T12:21:00.226Z,21.11
2022-11-02T12:23:32.747Z,21.02
2022-11-02T12:26:06.005Z,21.19
2022-11-02T12:28:39.086Z,21.19
2022-11-02T12:31:10.654Z,21.23
2022-11-02T12:33:48.829Z,21.11
2022-11-02T12:36:34.607Z,21.12
2022-11-02T12:39:03.973Z,21.01
2022-11-02T12:41:43.398Z,21.23
2022-11-02T12:44:13.232Z,21.42
2022-11-02T12:46:56.135Z,21.31
2022-11-02T12:49:36.381Z,21.31
2022-11-02T12:52:03.376Z,21.54
2022-11-02T12:54:35.639Z,21.52
2022-11-02T12:57:06.084Z,21.35
2022-11-02T12:59:33.026Z,21.69
2022-11-02T13:04:39.705Z,21.67
2022-11-02T13:07:11.635Z,21.91
2022-11-02T13:09:39.116Z,21.63
2022-11-02T13:12:06.071Z,22.04
2022-11-02T13:14:46.691Z,22.25
2022-11-02T13:17:16.826Z,22.16
2022-11-02T13:19:44.118Z,22.17
2022-11-02T13:22:10.901Z,22.19
2022-11-02T13:24:42.816Z,21.99
2022-11-02T13:27:35.971Z,21.96
2022-11-02T13:30:13.504Z,22.01
2022-11-02T13:32:43.571Z,22.06
2022-11-02T13:35:17.397Z,22.00
2022-11-02T13:37:54.043Z,22.17
2022-11-02T13:40:33.951Z,22.00
2022-11-02T13:43:21.929Z,21.86
2022-11-02T13:46:05.993Z,21.76
2022-11-02T13:48:48.510Z,21.72
2022-11-02T13:51:25.590Z,21.59
2022-11-02T13:54:03.035Z,21.68
2022-11-02T13:56:35.106Z,21.48
2022-11-02T13:59:09.547Z,21.48
2022-11-02T14:01:38.510Z,21.54
2022-11-02T14:04:06.922Z,21.55
2022-11-02T14:06:54.110Z,21.51
2022-11-02T14:09:26.000Z,21.42
2022-11-02T14:11:56.155Z,21.51
2022-11-02T14:14:26.800Z,21.44
2022-11-02T14:19:48.491Z,21.27
2022-11-02T14:22:18.168Z,21.15
2022-11-02T14:24:53.850Z,21.22
2022-11-02T14:27:22.693Z,21.24
2022-11-02T14:29:53.971Z,21.27
2022-11-02T14:32:22.745Z,21.16
2022-11-02T14:35:09.151Z,21.16
2022-11-02T14:37:35.841Z,21.14
2022-11-02T14:40:21.581Z,21.09
2022-11-02T14:42:57.581Z,21.14
2022-11-02T14:45:26.530Z,21.10
2022-11-02T14:47:57.996Z,21.05
2022-11-02T14:50:24.887Z,21.05
2022-11-02T14:52:59.064Z,20.99
2022-11-02T14:55:27.416Z,21.00
2022-11-02T14:57:58.408Z,20.97
2022-11-02T15:00:31.539Z,20.94
2022-11-02T15:02:58.617Z,20.97
2022-11-02T15:05:35.969Z,20.96
2022-11-02T15:08:07.277Z,20.94
2022-11-02T15:10:38.447Z,20.89
2022-11-02T15:13:20.869Z,20.82
2022-11-02T15:15:50.828Z,20.77
2022-11-02T15:18:30.356Z,20.68
2022-11-02T15:21:12.782Z,20.62
2022-11-02T15:23:58.843Z,20.67
2022-11-02T15:26:31.382Z,20.65
2022-11-02T15:28:59.826Z,20.69
2022-11-02T15:31:26.972Z,20.58
2022-11-02T15:33:55.397Z,20.53
2022-11-02T15:39:27.442Z,20.46
2022-11-02T15:42:03.073Z,20.31
2022-11-02T15:44:33.030Z,20.30
2022-11-02T15:46:59.930Z,20.29
2022-11-02T15:49:33.804Z,20.33
2022-11-02T15:52:00.791Z,20.29
2022-11-02T15:54:46.504Z,20.27
2022-11-02T15:57:19.476Z,20.21
2022-11-02T15:59:49.715Z,19.98
2022-11-02T16:02:24.064Z,20.02
2022-11-02T16:04:51.942Z,19.93
2022-11-02T16:07:18.636Z,19.89
2022-11-02T16:09:48.636Z,19.87
2022-11-02T16:12:21.826Z,19.71
2022-11-02T16:14:52.614Z,19.65
2022-11-02T16:17:23.595Z,19.51
2022-11-02T16:19:50.696Z,19.46
2022-11-02T16:22:24.599Z,19.36
2022-11-02T16:24:52.246Z,19.37
2022-11-02T16:27:18.992Z,19.17
2022-11-02T16:29:45.620Z,19.20
2022-11-02T16:32:12.775Z,18.99
2022-11-02T16:34:40.703Z,18.98
2022-11-02T16:37:10.566Z,18.85
2022-11-02T16:39:38.653Z,18.79
2022-11-02T16:42:10.328Z,18.76
2022-11-02T16:44:38.267Z,18.75
2022-11-02T16:47:08.174Z,18.51
2022-11-02T16:49:35.348Z,18.46
2022-11-02T16:52:19.221Z,18.38
2022-11-02T16:54:45.945Z,18.40
2022-11-02T16:57:19.066Z,18.21
2022-11-02T17:00:09.634Z,18.23
2022-11-02T17:02:37.312Z,18.15
2022-11-02T17:05:06.614Z,18.03
2022-11-02T17:07:33.797Z,17.79
2022-11-02T17:10:01.012Z,17.87
2022-11-02T17:12:37.765Z,17.68
2022-11-02T17:15:11.705Z,17.83
2022-11-02T17:17:39.590Z,17.65
2022-11-02T17:20:14.930Z,17.75
2022-11-02T17:22:55.630Z,17.58
2022-11-02T17:25:22.564Z,17.63
2022-11-02T17:27:50.132Z,17.48
2022-11-02T17:30:43.534Z,17.59
2022-11-02T17:33:14.356Z,17.47
2022-11-02T17:36:04.502Z,17.23
2022-11-02T17:38:32.426Z,17.22
2022-11-02T17:40:59.375Z,17.35
2022-11-02T17:43:26.276Z,17.28
2022-11-02T17:45:56.508Z,17.06
2022-11-02T17:48:24.976Z,17.10
2022-11-02T17:50:52.578Z,17.07
2022-11-02T17:53:19.611Z,16.84
2022-11-02T17:55:46.585Z,16.91
2022-11-02T17:58:14.250Z,17.02
2022-11-02T18:00:42.743Z,16.92
2022-11-02T18:03:14.608Z,16.90
2022-11-02T18:05:43.723Z,17.01
2022-11-02T18:08:14.182Z,17.07
2022-11-02T18:10:41.686Z,17.07
2022-11-02T18:13:15.937Z,17.13
2022-11-02T18:15:43.278Z,17.28
2022-11-02T18:18:10.616Z,17.32
2022-11-02T18:20:41.532Z,17.41
2022-11-02T18:23:16.713Z,17.42
2022-11-02T18:25:44.125Z,17.46
2022-11-02T18:28:14.917Z,17.44
2022-11-02T18:30:52.355Z,17.47
2022-11-02T18:33:19.993Z,17.53
2022-11-02T18:35:47.602Z,17.57
2022-11-02T18:38:14.712Z,17.74
2022-11-02T18:40:43.339Z,17.80
2022-11-02T18:43:10.945Z,17.66
2022-11-02T18:45:38.739Z,17.75
2022-11-02T18:48:06.576Z,17.73
2022-11-02T18:50:34.319Z,17.77
2022-11-02T18:53:01.416Z,17.86
2022-11-02T18:55:28.889Z,17.76
2022-11-02T18:57:56.791Z,17.74
2022-11-02T19:00:24.526Z,17.79
2022-11-02T19:02:52.111Z,17.79
2022-11-02T19:05:38.417Z,17.80
2022-11-02T19:08:24.957Z,17.80
2022-11-02T19:10:52.262Z,17.69
2022-11-02T19:13:20.427Z,17.67
2022-11-02T19:15:47.649Z,17.73
2022-11-02T19:18:14.947Z,17.73
2022-11-02T19:20:42.309Z,17.71
2022-11-02T19:23:10.152Z,17.73
2022-11-02T19:25:37.410Z,17.74
2022-11-02T19:28:05.022Z,17.76
2022-11-02T19:30:34.738Z,17.70
2022-11-02T19:33:03.421Z,17.64
2022-11-02T19:35:31.035Z,17.58
2022-11-02T19:37:58.887Z,17.69
2022-11-02T19:40:26.239Z,17.64
2022-11-02T19:42:54.771Z,17.55
2022-11-02T19:45:22.497Z,17.44
2022-11-02T19:47:50.601Z,17.52
2022-11-02T19:50:18.011Z,17.44
2022-11-02T19:52:47.738Z,17.46
2022-11-02T19:55:17.733Z,17.47
2022-11-02T19:57:45.127Z,17.41
2022-11-02T20:00:13.656Z,17.40
2022-11-02T20:02:41.646Z,17.47
2022-11-02T20:05:09.221Z,17.46
2022-11-02T20:07:37.931Z,17.46
2022-11-02T20:10:05.599Z,17.53
2022-11-02T20:12:36.310Z,17.29
2022-11-02T20:15:03.639Z,17.30
2022-11-02T20:17:42.172Z,17.27
2022-11-02T20:20:19.392Z,17.29
2022-11-02T20:22:46.968Z,17.28
2022-11-02T20:25:14.857Z,17.24
2022-11-02T20:27:43.616Z,17.17
2022-11-02T20:30:11.320Z,17.16
2022-11-02T20:32:38.117Z,16.94
2022-11-02T20:35:09.702Z,16.80
2022-11-02T20:37:39.853Z,16.73
2022-11-02T20:40:07.655Z,16.82
2022-11-02T20:42:35.739Z,16.83
2022-11-02T20:45:03.495Z,16.76
2022-11-02T20:47:31.790Z,16.70
2022-11-02T20:50:00.141Z,16.64
2022-11-02T20:52:27.310Z,16.70
2022-11-02T20:54:57.076Z,16.74
2022-11-02T20:57:30.806Z,16.76
2022-11-02T20:59:57.826Z,16.79
2022-11-02T21:02:24.829Z,16.66
2022-11-02T21:04:52.141Z,16.73
2022-11-02T21:07:19.186Z,16.72
2022-11-02T21:09:46.031Z,16.72
2022-11-02T21:12:31.749Z,16.76
2022-11-02T21:14:59.042Z,16.68
2022-11-02T21:17:26.223Z,16.69
2022-11-02T21:19:58.202Z,16.73
2022-11-02T21:22:29.873Z,16.83
2022-11-02T21:24:58.511Z,16.60
2022-11-02T21:27:25.313Z,16.67
2022-11-02T21:29:52.579Z,16.62
2022-11-02T21:32:19.502Z,16.50
2022-11-02T21:34:46.228Z,16.43
2022-11-02T21:37:15.934Z,16.64
2022-11-02T21:39:43.021Z,16.56
2022-11-02T21:42:09.930Z,16.43
2022-11-02T21:44:36.999Z,16.66
2022-11-02T21:47:03.717Z,16.66
2022-11-02T21:49:30.683Z,16.82
2022-11-02T21:51:57.661Z,16.73
2022-11-02T21:54:24.337Z,16.74
2022-11-02T21:56:52.642Z,16.90
2022-11-02T21:59:19.546Z,16.66
2022-11-02T22:01:49.808Z,16.68
2022-11-02T22:04:17.315Z,16.62
2022-11-02T22:06:44.033Z,16.64
2022-11-02T22:09:11.581Z,16.66
2022-11-02T22:11:38.802Z,16.72
2022-11-02T22:14:05.586Z,16.69
2022-11-02T22:16:34.920Z,16.77
2022-11-02T22:19:03.253Z,16.53
2022-11-02T22:21:30.928Z,16.74
2022-11-02T22:23:58.001Z,16.67
2022-11-02T22:26:25.813Z,16.59
2022-11-02T22:28:52.815Z,16.73
2022-11-02T22:31:23.862Z,16.69
2022-11-02T22:33:51.835Z,16.57
2022-11-02T22:36:19.587Z,16.53
2022-11-02T22:38:51.476Z,16.58
2022-11-02T22:41:20.417Z,16.52
2022-11-02T22:43:47.598Z,16.38
2022-11-02T22:46:17.306Z,16.45
2022-11-02T22:48:44.209Z,16.40
2022-11-02T22:51:11.653Z,16.50
2022-11-02T22:53:38.740Z,16.26
2022-11-02T22:56:11.887Z,16.48
2022-11-02T22:58:42.257Z,16.43
2022-11-02T23:01:10.570Z,16.43
2022-11-02T23:03:37.431Z,16.35
2022-11-02T23:06:06.507Z,16.46
2022-11-02T23:08:35.170Z,16.45
2022-11-02T23:11:20.813Z,16.41
2022-11-02T23:13:51.962Z,16.39
2022-11-02T23:16:24.468Z,16.38
2022-11-02T23:19:13.352Z,16.40
2022-11-02T23:21:41.611Z,16.35
2022-11-02T23:24:26.989Z,16.38
2022-11-02T23:26:53.844Z,16.44
2022-11-02T23:29:39.533Z,16.36
2022-11-02T23:32:26.093Z,16.37
2022-11-02T23:35:12.243Z,16.25
2022-11-02T23:37:39.032Z,16.44
2022-11-02T23:40:06.337Z,16.40
2022-11-02T23:42:33.134Z,16.35
2022-11-02T23:45:00.088Z,16.26
2022-11-02T23:47:48.932Z,16.33
2022-11-02T23:50:35.970Z,16.19
2022-11-02T23:53:21.967Z,16.27
2022-11-02T23:56:07.360Z,16.21
2022-11-02T23:58:34.336Z,16.13
